Time;durP1;ratioP1;P1;durP2;ratioP2;P2;SDS_P1;SDS_P2;PMS_P1;PMS_P2;Temp;Humidity;BMP_temperature;BMP_pressure;BME280_temperature;BME280_humidity;BME280_pressure;Samples;Min_cycle;Max_cycle;Signal;HPM_P1;HPM_P2
2021/12/22 00:01:52;;;;;;;116.50;36.70;;;;;;;-3.08;100.00;102310.22;4996416;28;20039;-79
2021/12/22 00:04:21;;;;;;;128.73;37.75;;;;;;;-3.06;100.00;102313.81;4980512;28;20030;-79
2021/12/22 00:06:46;;;;;;;122.28;35.58;;;;;;;-3.06;100.00;102303.09;4986323;28;20105;-79
2021/12/22 00:09:12;;;;;;;132.65;39.40;;;;;;;-3.00;100.00;102304.00;4995700;28;20038;-79
2021/12/22 00:11:37;;;;;;;132.23;36.17;;;;;;;-3.00;100.00;102305.75;4982828;28;20110;-79
2021/12/22 00:14:03;;;;;;;120.90;35.47;;;;;;;-3.06;100.00;102303.09;4992570;28;20058;-79
2021/12/22 00:16:28;;;;;;;125.75;36.05;;;;;;;-3.09;100.00;102303.09;4988637;28;20062;-79
2021/12/22 00:18:54;;;;;;;118.80;35.97;;;;;;;-3.16;100.00;102296.84;4991287;28;20402;-79
2021/12/22 00:21:20;;;;;;;112.00;34.90;;;;;;;-3.09;100.00;102303.97;4988497;28;20042;-79
2021/12/22 00:23:46;;;;;;;110.43;34.40;;;;;;;-3.07;100.00;102306.66;4985064;28;20509;-80
2021/12/22 00:26:13;;;;;;;133.90;36.95;;;;;;;-3.03;100.00;102305.78;4977756;28;20128;-79
2021/12/22 00:28:40;;;;;;;107.82;34.30;;;;;;;-3.04;100.00;102309.34;4999239;28;20050;-79
2021/12/22 00:31:11;;;;;;;119.88;35.00;;;;;;;-3.11;100.00;102302.19;4980461;28;20370;-79
2021/12/22 00:33:45;;;;;;;121.07;36.22;;;;;;;-3.06;100.00;102312.00;4995895;28;20034;-81
2021/12/22 00:36:11;;;;;;;118.45;34.63;;;;;;;-3.06;100.00;102305.78;4999096;28;20498;-80
2021/12/22 00:38:36;;;;;;;110.45;34.88;;;;;;;-3.08;100.00;102304.84;4987671;28;20034;-80
2021/12/22 00:41:02;;;;;;;115.97;34.88;;;;;;;-3.07;100.00;102307.53;4988830;28;20039;-80
2021/12/22 00:43:27;;;;;;;105.55;32.95;;;;;;;-3.13;100.00;102326.31;4997032;28;20055;-79
2021/12/22 00:45:56;;;;;;;110.90;33.25;;;;;;;-3.27;100.00;102330.72;5007257;28;20026;-80
2021/12/22 00:48:22;;;;;;;118.75;35.25;;;;;;;-3.22;100.00;102329.84;4981148;28;20038;-78
2021/12/22 00:50:47;;;;;;;100.47;32.90;;;;;;;-3.29;100.00;102319.13;4983504;28;20039;-80
2021/12/22 00:53:13;;;;;;;107.75;31.80;;;;;;;-3.35;100.00;102306.59;4998378;28;20037;-80
2021/12/22 00:55:38;;;;;;;116.40;35.10;;;;;;;-3.33;100.00;102315.53;5010403;28;20026;-79
2021/12/22 00:58:07;;;;;;;109.90;33.15;;;;;;;-3.27;100.00;102309.31;4989881;28;20161;-78
2021/12/22 01:00:32;;;;;;;113.95;33.90;;;;;;;-3.29;100.00;102300.38;4992402;28;20034;-79
2021/12/22 01:02:59;;;;;;;105.78;33.80;;;;;;;-3.25;100.00;102307.53;5001798;28;20397;-79
2021/12/22 01:05:25;;;;;;;122.57;34.45;;;;;;;-3.45;100.00;102272.69;5000835;28;20467;-79
2021/12/22 01:07:51;;;;;;;144.80;34.67;;;;;;;-3.23;100.00;102309.31;4990481;28;20106;-79
2021/12/22 01:10:20;;;;;;;114.85;32.67;;;;;;;-3.24;100.00;102312.00;4999211;28;20058;-79
2021/12/22 01:12:46;;;;;;;107.25;34.17;;;;;;;-3.20;100.00;102308.41;5013902;28;20047;-79
2021/12/22 01:15:12;;;;;;;107.97;34.78;;;;;;;-3.29;100.00;102309.31;4967429;28;20491;-79
2021/12/22 01:17:42;;;;;;;118.65;34.22;;;;;;;-3.29;100.00;102306.63;4988928;28;20039;-77
2021/12/22 01:20:20;;;;;;;109.43;33.83;;;;;;;-3.24;100.00;102318.22;4988196;28;20031;-78
2021/12/22 01:22:48;;;;;;;113.85;32.35;;;;;;;-3.20;100.00;102317.38;4994506;28;20030;-79
2021/12/22 01:25:21;;;;;;;110.68;34.67;;;;;;;-3.23;100.00;102316.44;5001486;28;20030;-79
2021/12/22 01:27:46;;;;;;;105.60;33.25;;;;;;;-3.21;100.00;102306.66;4999594;28;20104;-77
2021/12/22 01:30:19;;;;;;;110.03;32.58;;;;;;;-3.28;100.00;102307.50;4998316;28;20118;-78
2021/12/22 01:32:46;;;;;;;99.75;30.98;;;;;;;-3.32;100.00;102295.91;4998008;28;20035;-78
2021/12/22 01:35:16;;;;;;;103.50;32.75;;;;;;;-3.35;100.00;102312.84;4987518;28;20030;-80
2021/12/22 01:37:41;;;;;;;103.53;32.30;;;;;;;-3.32;100.00;102304.81;4997466;28;20026;-80
2021/12/22 01:40:10;;;;;;;107.95;32.63;;;;;;;-3.30;100.00;102306.63;4994247;28;20538;-80
2021/12/22 01:42:36;;;;;;;110.10;31.95;;;;;;;-3.28;100.00;102310.19;4972655;28;20081;-80
2021/12/22 01:50:46;;;;;;;102.00;32.35;;;;;;;-3.38;100.00;102317.31;5002883;28;20030;-80
2021/12/22 01:53:21;;;;;;;110.82;32.83;;;;;;;-3.37;100.00;102305.72;4994177;28;20054;-79
2021/12/22 01:56:04;;;;;;;105.85;33.05;;;;;;;-3.42;100.00;102297.66;4984007;28;20053;-80
2021/12/22 01:58:38;;;;;;;104.82;30.33;;;;;;;-3.47;100.00;102303.91;4995598;28;20039;-79
2021/12/22 02:01:05;;;;;;;100.32;29.88;;;;;;;-3.47;100.00;102309.28;4987447;28;20038;-79
2021/12/22 02:03:30;;;;;;;104.43;30.77;;;;;;;-3.48;100.00;102308.34;4991800;28;20031;-79
2021/12/22 02:05:56;;;;;;;111.90;31.67;;;;;;;-3.55;100.00;102315.47;5006340;28;20042;-79
2021/12/22 02:08:22;;;;;;;100.88;31.67;;;;;;;-3.47;100.00;102317.31;5001045;28;20053;-79
2021/12/22 02:10:48;;;;;;;110.35;32.65;;;;;;;-3.52;100.00;102312.81;4996164;28;20437;-79
2021/12/22 02:13:19;;;;;;;97.30;32.25;;;;;;;-3.57;100.00;102322.63;4986679;28;21673;-79
2021/12/22 02:15:46;;;;;;;97.65;30.95;;;;;;;-3.53;100.00;102318.16;4976949;28;20026;-80
2021/12/22 02:18:17;;;;;;;98.55;31.58;;;;;;;-3.59;100.00;102303.00;4998626;28;20073;-80
2021/12/22 02:20:43;;;;;;;90.80;30.33;;;;;;;-3.49;100.00;102314.63;4978412;28;20049;-80
2021/12/22 02:23:09;;;;;;;90.18;28.75;;;;;;;-3.52;100.00;102302.09;5010618;28;20034;-80
2021/12/22 02:25:42;;;;;;;96.10;31.50;;;;;;;-3.56;100.00;102303.00;4990229;28;20031;-80
2021/12/22 02:28:15;;;;;;;89.88;30.83;;;;;;;-3.51;100.00;102314.63;4999621;28;20055;-80
2021/12/22 02:30:41;;;;;;;94.72;29.65;;;;;;;-3.51;100.00;102314.63;4984010;28;20031;-80
2021/12/22 02:33:33;;;;;;;96.88;29.95;;;;;;;-3.55;100.00;102312.81;4982046;28;20117;-80
2021/12/22 02:38:35;;;;;;;95.93;29.17;;;;;;;-3.40;100.00;102319.09;4994718;28;20026;-80
2021/12/22 02:41:01;;;;;;;92.85;27.75;;;;;;;-3.42;100.00;102311.06;4988110;28;20041;-79
2021/12/22 02:43:31;;;;;;;98.32;30.65;;;;;;;-3.43;100.00;102316.41;4984779;28;20041;-80
2021/12/22 02:45:57;;;;;;;88.68;29.30;;;;;;;-3.47;100.00;102309.28;4977442;28;20126;-79
2021/12/22 02:48:26;;;;;;;81.78;27.67;;;;;;;-3.51;100.00;102309.25;5005423;28;20070;-79
2021/12/22 02:50:55;;;;;;;105.40;28.77;;;;;;;-3.56;100.00;102299.41;4985656;28;20042;-79
2021/12/22 02:53:25;;;;;;;92.82;29.17;;;;;;;-3.73;100.00;102268.13;4971138;28;20125;-80
2021/12/22 02:56:05;;;;;;;99.72;29.98;;;;;;;-3.66;100.00;102287.78;5010163;28;20497;-80
2021/12/22 02:58:53;;;;;;;93.60;29.20;;;;;;;-3.60;100.00;102301.19;5008128;28;20031;-80
2021/12/22 03:04:12;;;;;;;92.40;28.77;;;;;;;-3.47;100.00;102306.59;4994661;28;20150;-80
2021/12/22 03:06:46;;;;;;;86.13;28.50;;;;;;;-3.54;100.00;102309.25;4999157;28;20529;-80
2021/12/22 03:09:32;;;;;;;85.32;27.10;;;;;;;-3.68;100.00;102302.94;4991337;28;20030;-79
2021/12/22 03:12:01;;;;;;;94.68;28.13;;;;;;;-3.62;100.00;102307.41;4992437;28;20049;-80
2021/12/22 03:14:28;;;;;;;91.85;28.27;;;;;;;-3.59;100.00;102305.66;4982344;28;20061;-79
2021/12/22 03:16:54;;;;;;;84.97;29.38;;;;;;;-3.71;100.00;102305.63;4992879;28;20601;-79
2021/12/22 03:19:23;;;;;;;107.70;29.23;;;;;;;-3.62;100.00;102305.66;5001124;28;20054;-79
2021/12/22 03:21:52;;;;;;;81.20;27.35;;;;;;;-3.71;100.00;102310.97;4989348;28;20101;-80
2021/12/22 03:24:20;;;;;;;92.97;28.67;;;;;;;-3.77;100.00;102303.81;5008283;28;20022;-80
2021/12/22 03:26:46;;;;;;;95.97;30.67;;;;;;;-3.64;100.00;102315.47;4993122;28;20039;-78
2021/12/22 03:29:14;;;;;;;93.95;28.80;;;;;;;-3.71;100.00;102313.63;5000573;28;20038;-78
2021/12/22 03:31:40;;;;;;;85.30;28.13;;;;;;;-3.76;100.00;102304.72;4989243;28;20038;-78
2021/12/22 03:34:06;;;;;;;99.82;28.13;;;;;;;-3.80;100.00;102298.47;4988869;28;20047;-78
2021/12/22 03:36:32;;;;;;;86.07;26.95;;;;;;;-3.73;100.00;102315.44;4994124;28;20042;-78
2021/12/22 03:38:58;;;;;;;74.32;28.52;;;;;;;-3.78;100.00;102323.44;5000253;28;20474;-80
2021/12/22 03:41:23;;;;;;;86.35;27.73;;;;;;;-3.88;100.00;102319.81;4986582;28;20042;-80
2021/12/22 03:43:49;;;;;;;83.43;27.35;;;;;;;-3.83;100.00;102318.97;4992243;28;20035;-80
2021/12/22 03:46:14;;;;;;;82.32;28.60;;;;;;;-3.84;100.00;102315.38;4989411;28;20073;-79
2021/12/22 03:48:42;;;;;;;88.28;26.85;;;;;;;-3.86;100.00;102309.13;4988564;28;20030;-80
2021/12/22 03:51:07;;;;;;;78.50;25.20;;;;;;;-3.89;100.00;102314.47;4981318;28;20030;-80
2021/12/22 03:53:33;;;;;;;74.35;25.92;;;;;;;-3.90;100.00;102324.28;4987120;28;20073;-78
2021/12/22 03:55:58;;;;;;;75.40;24.60;;;;;;;-3.88;100.00;102306.44;4992405;28;20455;-78
2021/12/22 03:58:24;;;;;;;79.60;25.52;;;;;;;-3.81;100.00;102315.38;4972964;28;20030;-79
2021/12/22 04:00:51;;;;;;;80.70;26.90;;;;;;;-3.85;100.00;102312.69;4985999;28;20030;-80
2021/12/22 04:03:22;;;;;;;70.95;25.38;;;;;;;-3.85;100.00;102323.38;5000112;28;20078;-79
2021/12/22 04:05:48;;;;;;;83.78;25.63;;;;;;;-3.86;100.00;102326.97;5001416;28;20049;-80
2021/12/22 04:08:17;;;;;;;76.82;25.70;;;;;;;-3.80;100.00;102333.25;4973095;28;20738;-80
2021/12/22 04:10:43;;;;;;;67.60;22.65;;;;;;;-3.76;100.00;102323.44;4991506;28;20035;-79
2021/12/22 04:13:09;;;;;;;74.47;24.63;;;;;;;-3.89;100.00;102312.69;4998304;28;20069;-80
2021/12/22 04:15:35;;;;;;;73.75;23.77;;;;;;;-3.81;100.00;102314.50;4992270;28;20053;-79
2021/12/22 04:18:01;;;;;;;77.65;24.13;;;;;;;-3.85;100.00;102310.94;5000011;28;20094;-80
2021/12/22 04:20:28;;;;;;;73.43;25.17;;;;;;;-3.87;100.00;102312.69;5003792;28;20034;-80
2021/12/22 04:22:54;;;;;;;69.22;23.35;;;;;;;-3.97;100.00;102314.41;4998246;28;20397;-80
2021/12/22 04:25:21;;;;;;;80.95;24.08;;;;;;;-4.00;100.00;102309.09;4969492;28;20117;-79
2021/12/22 04:27:53;;;;;;;68.25;23.75;;;;;;;-3.94;100.00;102305.53;4984293;28;20121;-80
2021/12/22 04:30:20;;;;;;;70.13;23.80;;;;;;;-4.09;100.00;102304.56;4995990;28;20098;-79
2021/12/22 04:32:45;;;;;;;73.93;25.38;;;;;;;-4.01;100.00;102311.75;4991780;28;20026;-79
2021/12/22 04:35:11;;;;;;;84.50;26.65;;;;;;;-4.06;100.00;102296.56;4996446;28;20056;-80
2021/12/22 04:37:36;;;;;;;73.13;25.17;;;;;;;-4.16;100.00;102297.41;5003321;28;20033;-79
2021/12/22 04:40:04;;;;;;;70.65;23.67;;;;;;;-4.25;100.00;102305.38;4969839;28;20031;-81
2021/12/22 04:42:29;;;;;;;69.95;23.35;;;;;;;-4.20;100.00;102294.69;5001013;28;20065;-80
2021/12/22 04:44:57;;;;;;;78.55;23.77;;;;;;;-4.28;100.00;102282.19;4976623;28;20031;-81
2021/12/22 04:47:22;;;;;;;71.05;22.70;;;;;;;-4.27;100.00;102291.97;4980308;28;20069;-79
2021/12/22 04:49:48;;;;;;;63.53;22.83;;;;;;;-4.18;100.00;102293.84;4981487;28;20033;-79
2021/12/22 04:52:19;;;;;;;76.57;23.48;;;;;;;-4.19;100.00;102293.81;5002840;28;20117;-80
2021/12/22 04:55:02;;;;;;;82.68;23.45;;;;;;;-4.21;100.00;102280.44;4997550;28;20500;-81
2021/12/22 04:57:28;;;;;;;66.10;23.37;;;;;;;-4.18;100.00;102291.16;4992484;28;20027;-81
2021/12/22 04:59:53;;;;;;;62.90;22.55;;;;;;;-4.18;100.00;102293.84;4987664;28;20313;-79
2021/12/22 05:02:19;;;;;;;64.00;23.30;;;;;;;-4.18;100.00;102287.56;4985514;28;20034;-78
2021/12/22 05:04:44;;;;;;;70.35;24.15;;;;;;;-4.22;100.00;102286.66;5005118;28;20041;-78
2021/12/22 05:07:10;;;;;;;72.97;23.08;;;;;;;-4.30;100.00;102283.94;4993944;28;20034;-79
2021/12/22 05:09:35;;;;;;;72.95;25.05;;;;;;;-4.29;100.00;102282.19;4994278;28;20530;-79
2021/12/22 05:12:01;;;;;;;67.32;23.05;;;;;;;-4.19;100.00;102291.16;4988392;28;20105;-79
2021/12/22 05:14:26;;;;;;;63.00;22.83;;;;;;;-4.17;100.00;102294.72;4990119;28;20031;-78
2021/12/22 05:16:58;;;;;;;72.05;23.00;;;;;;;-4.25;100.00;102275.94;4993566;28;20082;-80
2021/12/22 05:19:24;;;;;;;60.95;21.10;;;;;;;-4.14;100.00;102286.72;4989902;28;20027;-79
2021/12/22 05:21:49;;;;;;;70.65;21.13;;;;;;;-4.11;100.00;102278.72;4995734;28;20030;-80
2021/12/22 05:24:15;;;;;;;55.33;20.02;;;;;;;-4.13;100.00;102270.69;4995957;28;20046;-79
2021/12/22 05:26:40;;;;;;;65.72;21.52;;;;;;;-4.10;100.00;102285.81;4994270;28;20039;-79
2021/12/22 05:29:06;;;;;;;59.22;20.88;;;;;;;-4.27;100.00;102283.97;4981803;28;20052;-79
2021/12/22 05:31:31;;;;;;;65.80;19.58;;;;;;;-4.37;100.00;102275.91;4993895;28;20047;-79
2021/12/22 05:33:57;;;;;;;51.67;19.52;;;;;;;-4.28;100.00;102273.25;4985433;28;20343;-79
2021/12/22 05:36:23;;;;;;;59.78;20.20;;;;;;;-4.16;100.00;102280.47;4978346;28;20454;-79
2021/12/22 05:38:48;;;;;;;62.70;19.92;;;;;;;-4.28;100.00;102273.25;4984914;28;20035;-79
2021/12/22 05:41:15;;;;;;;61.03;22.17;;;;;;;-4.19;100.00;102281.34;4984116;28;20118;-79
2021/12/22 05:43:40;;;;;;;63.70;20.45;;;;;;;-4.28;100.00;102273.25;4979378;28;20061;-78
2021/12/22 05:46:06;;;;;;;57.65;21.48;;;;;;;-4.27;100.00;102272.38;4982249;28;20085;-80
2021/12/22 05:48:31;;;;;;;57.90;20.02;;;;;;;-4.23;100.00;102275.97;4986449;28;20045;-80
2021/12/22 05:50:58;;;;;;;52.03;19.27;;;;;;;-4.30;100.00;102264.34;4986979;28;20039;-80
2021/12/22 05:53:25;;;;;;;53.60;19.38;;;;;;;-4.35;100.00;102258.97;4990112;28;20149;-79
2021/12/22 05:55:50;;;;;;;72.25;19.98;;;;;;;-4.29;100.00;102264.34;4985049;28;20034;-79
2021/12/22 05:58:16;;;;;;;50.75;19.60;;;;;;;-4.20;100.00;102273.31;4991384;28;20034;-81
2021/12/22 06:00:42;;;;;;;63.15;21.35;;;;;;;-4.26;100.00;102256.34;5002537;28;20035;-81
2021/12/22 06:03:10;;;;;;;73.88;20.92;;;;;;;-4.35;100.00;102240.25;4985225;28;20037;-81
2021/12/22 06:05:36;;;;;;;55.30;20.10;;;;;;;-4.22;100.00;102251.91;4985553;28;20524;-80
2021/12/22 06:08:02;;;;;;;51.25;18.95;;;;;;;-4.27;100.00;102248.31;4975288;28;20054;-80
2021/12/22 06:10:28;;;;;;;45.97;18.30;;;;;;;-4.20;100.00;102247.44;4994195;28;20041;-81
2021/12/22 06:12:53;;;;;;;48.78;17.63;;;;;;;-4.27;100.00;102246.53;4988711;28;20031;-79
2021/12/22 06:15:18;;;;;;;49.72;17.38;;;;;;;-4.25;100.00;102247.47;4995183;28;20069;-80
2021/12/22 06:17:48;;;;;;;49.70;18.90;;;;;;;-4.20;100.00;102238.53;4967476;28;20027;-80
2021/12/22 06:20:13;;;;;;;44.10;16.60;;;;;;;-4.25;100.00;102250.13;4997755;28;20026;-82
2021/12/22 06:22:38;;;;;;;52.13;18.33;;;;;;;-4.25;100.00;102243.88;5000538;28;20100;-82
2021/12/22 06:25:04;;;;;;;44.47;18.33;;;;;;;-4.19;100.00;102257.28;4985884;28;20478;-80
2021/12/22 06:27:30;;;;;;;47.58;17.98;;;;;;;-4.21;100.00;102255.47;4998350;28;20057;-80
2021/12/22 06:29:55;;;;;;;45.22;17.75;;;;;;;-4.20;100.00;102250.13;4971058;28;20037;-80
2021/12/22 06:32:21;;;;;;;44.47;16.42;;;;;;;-4.23;100.00;102249.22;4985288;28;20030;-83
2021/12/22 06:34:46;;;;;;;36.55;16.73;;;;;;;-4.28;100.00;102244.75;4976611;28;20030;-80
2021/12/22 06:37:13;;;;;;;42.45;16.02;;;;;;;-4.34;100.00;102244.72;4987743;28;20486;-81
2021/12/22 06:39:39;;;;;;;42.95;17.60;;;;;;;-4.26;100.00;102252.78;5002066;28;20224;-81
2021/12/22 06:42:07;;;;;;;39.17;16.30;;;;;;;-4.23;100.00;102258.16;4990998;28;20042;-80
2021/12/22 06:44:33;;;;;;;47.08;17.90;;;;;;;-4.24;100.00;102264.38;5003258;28;20067;-80
2021/12/22 06:46:58;;;;;;;48.35;17.02;;;;;;;-4.27;100.00;102251.00;4992237;28;20372;-79
2021/12/22 06:49:24;;;;;;;39.78;15.45;;;;;;;-4.31;100.00;102255.44;4987653;28;20047;-81
2021/12/22 06:51:50;;;;;;;39.10;15.07;;;;;;;-4.28;100.00;102258.13;5001617;28;20054;-80
2021/12/22 06:54:16;;;;;;;38.63;15.23;;;;;;;-4.26;100.00;102252.78;4992891;28;20026;-80
2021/12/22 06:56:41;;;;;;;42.10;16.25;;;;;;;-4.26;100.00;102267.03;4992993;28;20045;-80
2021/12/22 06:59:07;;;;;;;39.53;15.35;;;;;;;-4.22;100.00;102272.41;4978300;28;20030;-80
2021/12/22 07:01:34;;;;;;;41.25;14.85;;;;;;;-4.29;100.00;102266.16;4996828;28;20049;-80
2021/12/22 07:04:00;;;;;;;44.03;15.32;;;;;;;-4.27;100.00;102275.06;4982598;28;20027;-80
2021/12/22 07:06:27;;;;;;;39.72;16.67;;;;;;;-4.32;100.00;102271.47;4975560;28;20086;-80
2021/12/22 07:08:52;;;;;;;37.33;15.98;;;;;;;-4.52;100.00;102233.94;4979668;28;20041;-79
2021/12/22 07:11:18;;;;;;;40.40;15.30;;;;;;;-4.34;100.00;102267.91;4996467;28;20633;-80
2021/12/22 07:13:44;;;;;;;43.50;15.40;;;;;;;-4.40;100.00;102267.84;4996513;28;20078;-80
2021/12/22 07:16:09;;;;;;;135.50;47.95;;;;;;;-4.39;100.00;102272.31;4972141;28;20062;-79
2021/12/22 07:18:34;;;;;;;56.13;21.13;;;;;;;-4.49;100.00;102263.38;4968879;28;20027;-80
2021/12/22 07:21:00;;;;;;;48.67;16.98;;;;;;;-4.29;100.00;102259.00;4965932;28;20050;-79
2021/12/22 07:23:27;;;;;;;44.75;15.70;;;;;;;-4.29;100.00;102261.69;4987510;28;20042;-80
2021/12/22 07:25:52;;;;;;;33.78;14.27;;;;;;;-4.32;100.00;102267.00;4976093;28;20595;-77
2021/12/22 07:28:18;;;;;;;38.05;14.45;;;;;;;-4.38;100.00;102263.41;4992749;28;20058;-79
2021/12/22 07:30:43;;;;;;;51.60;16.45;;;;;;;-4.39;100.00;102266.97;4978227;28;20056;-78
2021/12/22 07:33:09;;;;;;;48.08;16.27;;;;;;;-4.48;100.00;102271.38;4982269;28;20039;-78
2021/12/22 07:35:42;;;;;;;36.47;16.17;;;;;;;-4.49;100.00;102271.38;4999756;28;20049;-78
2021/12/22 07:38:32;;;;;;;38.83;14.98;;;;;;;-4.52;100.00;102266.91;4998270;28;20119;-79
2021/12/22 07:41:00;;;;;;;41.53;15.68;;;;;;;-4.63;100.00;102260.59;4996699;28;20046;-78
2021/12/22 07:43:27;;;;;;;35.33;15.63;;;;;;;-4.53;100.00;102258.88;4980824;28;20108;-79
2021/12/22 07:45:53;;;;;;;43.08;15.50;;;;;;;-4.49;100.00;102261.56;4982978;28;20046;-78
2021/12/22 07:48:19;;;;;;;35.83;14.55;;;;;;;-4.46;100.00;102258.00;4987707;28;20047;-78
2021/12/22 07:50:45;;;;;;;35.33;14.93;;;;;;;-4.38;100.00;102260.75;4989757;28;20034;-79
2021/12/22 07:53:10;;;;;;;32.92;14.90;;;;;;;-4.34;100.00;102267.91;4987411;28;20062;-80
2021/12/22 07:55:36;;;;;;;34.80;15.77;;;;;;;-4.30;100.00;102267.91;4985235;28;20347;-80
2021/12/22 07:58:02;;;;;;;41.58;15.38;;;;;;;-4.32;100.00;102269.69;4991489;28;20030;-80
2021/12/22 08:00:28;;;;;;;37.53;14.65;;;;;;;-4.29;100.00;102267.03;4993729;28;20035;-80
2021/12/22 08:02:54;;;;;;;44.42;16.58;;;;;;;-4.41;100.00;102256.28;4988539;28;20378;-80
2021/12/22 08:05:20;;;;;;;42.40;16.25;;;;;;;-4.26;100.00;102256.34;4981573;28;20026;-79
2021/12/22 08:07:45;;;;;;;47.22;15.45;;;;;;;-4.31;100.00;102260.78;4986202;28;20054;-80
2021/12/22 08:10:11;;;;;;;39.85;15.23;;;;;;;-4.32;100.00;102261.66;4971742;28;20026;-80
2021/12/22 08:12:37;;;;;;;39.85;15.80;;;;;;;-4.25;100.00;102265.25;4987187;28;20577;-82
2021/12/22 08:15:04;;;;;;;38.00;15.52;;;;;;;-4.27;100.00;102253.66;5001186;28;20061;-81
2021/12/22 08:17:31;;;;;;;46.13;16.90;;;;;;;-4.25;100.00;102263.50;4987590;28;20532;-81
2021/12/22 08:19:57;;;;;;;38.58;15.98;;;;;;;-4.17;100.00;102260.84;4992133;28;20068;-82
2021/12/22 08:22:22;;;;;;;40.53;16.52;;;;;;;-4.09;100.00;102264.44;4997868;28;20049;-78
2021/12/22 08:24:50;;;;;;;34.22;15.23;;;;;;;-4.15;100.00;102247.47;4990275;28;20026;-78
2021/12/22 08:27:23;;;;;;;37.25;15.05;;;;;;;-4.12;100.00;102259.06;4988371;28;20042;-80
2021/12/22 08:29:49;;;;;;;34.90;15.98;;;;;;;-4.04;100.00;102256.44;4984512;28;20106;-79
2021/12/22 08:32:16;;;;;;;50.22;15.68;;;;;;;-4.00;100.00;102250.22;4970964;28;20117;-80
2021/12/22 08:34:42;;;;;;;41.30;16.00;;;;;;;-3.98;100.00;102250.25;4977533;28;20125;-80
2021/12/22 08:39:55;;;;;;;54.97;17.38;;;;;;;-3.97;100.00;102260.91;4980177;28;20058;-79
2021/12/22 08:42:21;;;;;;;45.40;16.13;;;;;;;-3.89;100.00;102251.16;4988670;28;20027;-78
2021/12/22 08:44:47;;;;;;;36.88;15.63;;;;;;;-3.82;100.00;102254.75;4987755;28;20153;-81
2021/12/22 08:47:13;;;;;;;36.50;15.05;;;;;;;-3.76;100.00;102251.19;4994982;28;20063;-80
2021/12/22 08:49:39;;;;;;;36.30;16.67;;;;;;;-3.82;100.00;102240.47;4994830;28;20030;-79
2021/12/22 08:52:05;;;;;;;33.22;15.75;;;;;;;-3.77;100.00;102236.94;4997094;28;20125;-79
2021/12/22 08:54:30;;;;;;;36.50;15.63;;;;;;;-3.61;100.00;102261.03;4984273;28;20034;-79
2021/12/22 08:56:56;;;;;;;38.80;15.55;;;;;;;-3.60;100.00;102255.69;4984282;28;20531;-80
2021/12/22 08:59:24;;;;;;;31.50;14.77;;;;;;;-3.55;100.00;102255.72;4985079;28;20033;-81
2021/12/22 09:01:51;;;;;;;37.78;16.92;;;;;;;-3.51;100.00;102255.72;4979310;28;20023;-80
2021/12/22 09:04:19;;;;;;;33.85;15.52;;;;;;;-3.55;100.00;102240.53;4989153;28;20414;-81
2021/12/22 09:06:44;;;;;;;35.10;15.60;;;;;;;-3.44;100.00;102247.69;4988118;28;20486;-80
2021/12/22 09:09:10;;;;;;;32.90;15.32;;;;;;;-3.36;100.00;102240.53;4990618;28;20058;-80
2021/12/22 09:11:37;;;;;;;38.17;15.07;;;;;;;-3.45;100.00;102240.56;4969775;28;20077;-80
2021/12/22 09:14:04;;;;;;;39.05;15.52;;;;;;;-3.35;100.00;102255.72;4970716;28;20027;-79
2021/12/22 09:16:30;;;;;;;38.53;15.90;;;;;;;-3.34;100.00;102254.84;4984827;28;20455;-81
2021/12/22 09:18:56;;;;;;;36.40;15.60;;;;;;;-3.33;100.00;102237.88;4987547;28;20034;-81
2021/12/22 09:21:22;;;;;;;40.72;15.55;;;;;;;-3.32;100.00;102253.94;4989684;28;20446;-80
2021/12/22 09:23:48;;;;;;;38.30;15.65;;;;;;;-3.33;100.00;102254.84;5007279;28;20030;-80
2021/12/22 09:26:15;;;;;;;39.80;16.23;;;;;;;-3.20;100.00;102257.53;4996474;28;20054;-81
2021/12/22 09:28:40;;;;;;;35.95;14.93;;;;;;;-3.17;100.00;102254.84;4995355;28;20035;-82
2021/12/22 09:31:09;;;;;;;30.00;14.95;;;;;;;-3.18;100.00;102253.97;4988078;28;20555;-80
2021/12/22 09:33:35;;;;;;;33.38;15.30;;;;;;;-3.05;100.00;102248.59;4979975;28;20514;-80
2021/12/22 09:36:04;;;;;;;31.15;15.23;;;;;;;-2.96;100.00;102248.59;4987387;28;20079;-81
2021/12/22 09:38:30;;;;;;;33.05;15.40;;;;;;;-2.67;100.00;102243.22;4986500;28;20486;-79
2021/12/22 09:40:56;;;;;;;38.95;16.20;;;;;;;-2.80;100.00;102241.47;4980563;28;20086;-80
2021/12/22 09:43:21;;;;;;;37.88;15.65;;;;;;;-2.61;100.00;102245.91;4969501;28;20102;-80
2021/12/22 09:45:52;;;;;;;33.17;15.98;;;;;;;-2.68;100.00;102256.63;4996491;28;20443;-78
2021/12/22 09:48:28;;;;;;;34.40;17.33;;;;;;;-2.52;100.00;102249.44;4962979;28;20109;-79
2021/12/22 09:53:22;;;;;;;34.42;17.98;;;;;;;-2.32;100.00;102238.66;4979398;28;20041;-79
2021/12/22 09:55:48;;;;;;;41.70;17.98;;;;;;;-2.30;100.00;102231.50;4978130;28;20043;-80
2021/12/22 09:58:14;;;;;;;40.80;18.42;;;;;;;-2.27;100.00;102215.41;4968727;28;20050;-79
2021/12/22 10:00:42;;;;;;;36.85;18.65;;;;;;;-1.97;100.00;102229.56;4993768;28;20043;-79
2021/12/22 10:03:09;;;;;;;35.80;19.10;;;;;;;-1.99;100.00;102232.25;4972977;28;20050;-80
2021/12/22 10:05:36;;;;;;;45.83;21.08;;;;;;;-2.00;100.00;102224.22;4997961;28;20034;-79
2021/12/22 10:08:06;;;;;;;52.53;23.27;;;;;;;-1.76;100.00;102224.09;4997948;28;20355;-79
2021/12/22 10:10:33;;;;;;;39.70;19.48;;;;;;;-1.77;100.00;102214.28;4977553;28;20037;-80
2021/12/22 10:13:12;;;;;;;41.88;18.63;;;;;;;-1.84;100.00;102217.88;4977715;28;20442;-79
2021/12/22 10:15:39;;;;;;;36.80;16.42;;;;;;;-1.89;100.00;102217.00;4961939;28;20130;-77
2021/12/22 10:18:20;;;;;;;40.47;15.63;;;;;;;-1.79;100.00;102221.41;4994103;28;20054;-79
2021/12/22 10:20:48;;;;;;;32.80;14.65;;;;;;;-1.71;100.00;102222.25;4993501;28;20489;-81
2021/12/22 10:23:25;;;;;;;34.17;15.23;;;;;;;-1.58;100.00;102216.81;4966807;28;20057;-77
2021/12/22 10:25:56;;;;;;;33.80;14.90;;;;;;;-1.50;100.00;102223.03;4946505;28;20510;-79
2021/12/22 10:28:23;;;;;;;28.10;13.93;;;;;;;-1.32;100.00;102208.59;4961722;28;20138;-78
2021/12/22 10:30:55;;;;;;;29.83;15.07;;;;;;;-1.40;100.00;102205.94;4984628;28;20046;-79
2021/12/22 10:33:25;;;;;;;34.03;15.52;;;;;;;-1.33;100.00;102215.75;4999044;28;20029;-80
2021/12/22 10:35:56;;;;;;;33.70;14.93;;;;;;;-1.13;100.00;102199.47;5004115;28;20026;-80
2021/12/22 10:38:25;;;;;;;34.60;15.10;;;;;;;-1.06;100.00;102212.84;4977936;28;20513;-80
2021/12/22 10:40:57;;;;;;;30.95;13.80;;;;;;;-0.80;100.00;102210.81;4977462;28;20463;-79
2021/12/22 10:43:29;;;;;;;34.97;14.70;;;;;;;-0.88;100.00;102218.06;4977191;28;20167;-78
2021/12/22 10:45:59;;;;;;;36.33;14.93;;;;;;;-0.78;100.00;102217.06;4984253;28;20039;-79
2021/12/22 10:51:46;;;;;;;36.13;15.27;;;;;;;-1.05;100.00;102194.03;4988387;28;20057;-81
2021/12/22 10:54:16;;;;;;;36.38;16.13;;;;;;;-0.75;100.00;102190.13;4981872;28;20035;-79
2021/12/22 10:56:47;;;;;;;38.67;15.60;;;;;;;-0.69;100.00;102186.47;5007209;28;20062;-80
2021/12/22 10:59:16;;;;;;;35.65;16.17;;;;;;;-0.67;100.00;102184.69;4969494;28;20037;-80
2021/12/22 11:01:42;;;;;;;31.65;14.80;;;;;;;-0.57;100.00;102186.34;4977369;28;20118;-80
2021/12/22 11:04:18;;;;;;;35.20;15.13;;;;;;;-0.42;100.00;102179.91;4974709;28;20077;-79
2021/12/22 11:06:44;;;;;;;33.15;15.75;;;;;;;-0.46;100.00;102188.03;4983232;28;20050;-80
2021/12/22 11:09:14;;;;;;;30.80;14.60;;;;;;;-0.52;100.00;102167.47;4978593;28;20410;-80
2021/12/22 11:11:46;;;;;;;34.25;17.42;;;;;;;-0.54;100.00;102166.63;4965168;28;20120;-80
2021/12/22 11:14:22;;;;;;;36.35;15.40;;;;;;;-0.43;100.00;102159.28;4997344;28;20065;-80
2021/12/22 11:17:13;;;;;;;38.05;15.80;;;;;;;-0.24;100.00;102159.06;4980551;28;20029;-78
2021/12/22 11:19:58;;;;;;;35.25;15.10;;;;;;;-0.28;100.00;102152.84;4989905;28;20070;-79
2021/12/22 11:22:38;;;;;;;41.30;14.82;;;;;;;-0.27;100.00;102154.59;4976732;28;20070;-78